»·PEaware :: DCM424 KLMT-KUAO

DCM424 :: KLMT-KUAO

FLIGHT INFORMATION

Flight Status: Arrived
Operator: DotCom
More flights by this operator :: More flights under this callsign
Pilot: Ben H. (9170)
Aircraft: DORNIER 228
(D228)
More flights by this aircraft type
Origin: KLMT Klamath Falls Intl
United States
Destination: KUAO Aurora State
United States
More flights between these airports :: More routes between these airports
Route: +
File this flight plan on PilotEdge
Remarks:
Altitude:
(Current/Filed)
0ft
Speed:
(Current/Filed)
0kts
Departed: 07-Feb-19 08:01 PM
Arrived: 07-Feb-19 08:48 PM
Distance/Time
Traveled:
199nm/0:46
Distance/Time
To Go:
Arrived

Flight Plot

Page will automatically refresh every two minutes.

Flight plan parsing failed; only flown route is shown


Map Options




Map Legend


Flown Route
Filed Route
Departure Airport
Arrival Airport
Navaid (VOR, NDB)
Fix

Horizontal Profiles

Position Reports

Time Latitude Longitude Heading Altitude Ground
Speed
07-Feb-19 20:00 42.535229 -121.854656 346 10243ft 233kts
07-Feb-19 20:01 42.596918 -121.874555 346 10239ft 228kts
07-Feb-19 20:02 42.656910 -121.893940 346 10240ft 227kts
07-Feb-19 20:03 42.718397 -121.913874 346 10240ft 227kts
07-Feb-19 20:04 42.779784 -121.933799 346 10240ft 227kts
07-Feb-19 20:05 42.841450 -121.953851 346 10240ft 227kts
07-Feb-19 20:05 42.892767 -121.970570 346 10240ft 227kts
07-Feb-19 20:06 42.951792 -121.989835 346 10240ft 227kts
07-Feb-19 20:08 43.023843 -122.013404 346 10240ft 227kts
07-Feb-19 20:09 43.085306 -122.033554 346 10240ft 227kts
07-Feb-19 20:09 43.128810 -122.047841 346 10240ft 227kts
07-Feb-19 20:10 43.189994 -122.067971 346 10240ft 227kts
07-Feb-19 20:11 43.251682 -122.088308 346 10240ft 227kts
07-Feb-19 20:12 43.312969 -122.108555 346 10240ft 227kts
07-Feb-19 20:13 43.374574 -122.128950 346 10240ft 227kts
07-Feb-19 20:14 43.436009 -122.149331 346 10240ft 227kts
07-Feb-19 20:15 43.497735 -122.169852 346 10195ft 228kts
07-Feb-19 20:16 43.559539 -122.190446 346 10194ft 227kts
07-Feb-19 20:17 43.621034 -122.210974 346 10194ft 227kts
07-Feb-19 20:18 43.682490 -122.231533 346 10194ft 227kts
07-Feb-19 20:19 43.743987 -122.252151 346 10194ft 227kts
07-Feb-19 20:20 43.805580 -122.272845 346 10194ft 227kts
07-Feb-19 20:21 43.867091 -122.293556 346 10194ft 227kts
07-Feb-19 20:22 43.928765 -122.314365 346 10194ft 227kts
07-Feb-19 20:23 43.990397 -122.335205 346 10194ft 227kts
07-Feb-19 20:24 44.051832 -122.356023 346 10194ft 227kts
07-Feb-19 20:25 44.113259 -122.376882 346 10194ft 227kts
07-Feb-19 20:26 44.171533 -122.396709 346 10194ft 227kts
07-Feb-19 20:27 44.233310 -122.417775 346 10194ft 227kts
07-Feb-19 20:28 44.294856 -122.438808 346 10194ft 227kts
07-Feb-19 20:29 44.356311 -122.459856 346 10194ft 227kts
07-Feb-19 20:30 44.417854 -122.480980 346 10194ft 227kts
07-Feb-19 20:31 44.479450 -122.502167 346 10194ft 227kts
07-Feb-19 20:32 44.540874 -122.523341 346 10194ft 227kts
07-Feb-19 20:33 44.602402 -122.544599 346 10194ft 227kts
07-Feb-19 20:34 44.664335 -122.566043 346 10194ft 227kts
07-Feb-19 20:35 44.725736 -122.587350 346 10194ft 227kts
07-Feb-19 20:36 44.787222 -122.608705 346 10184ft 228kts
07-Feb-19 20:37 44.848157 -122.629954 346 9234ft 223kts
07-Feb-19 20:38 44.908380 -122.650990 345 8227ft 220kts
07-Feb-19 20:39 44.966592 -122.671362 345 7241ft 218kts
07-Feb-19 20:40 45.023216 -122.694809 323 6258ft 205kts
07-Feb-19 20:41 45.053716 -122.760254 301 5172ft 198kts
07-Feb-19 20:42 45.100142 -122.787593 0 3711ft 195kts
07-Feb-19 20:43 45.142549 -122.786567 2 2726ft 134kts
07-Feb-19 20:44 45.177249 -122.782059 6 1680ft 107kts
07-Feb-19 20:45 45.205806 -122.777317 6 993ft 100kts
07-Feb-19 20:46 45.231248 -122.772886 6 447ft 89kts
07-Feb-19 20:47 45.246884 -122.769963 39 200ft 10kts
07-Feb-19 20:48 45.246713 -122.768950 178 200ft 0kts
07-Feb-19 20:49 45.246713 -122.768950 178 200ft 0kts
07-Feb-19 20:50 45.245158 -122.769082 148 200ft 0kts
07-Feb-19 20:51 45.243349 -122.769550 187 200ft 26kts
07-Feb-19 20:52 45.240318 -122.770228 233 200ft 7kts
07-Feb-19 20:53 45.259350 -122.768242 2 1181ft 107kts
07-Feb-19 20:54 45.297339 -122.760009 20 2188ft 180kts
07-Feb-19 20:55 45.348086 -122.739693 12 2176ft 192kts
07-Feb-19 20:56 45.400711 -122.723561 11 2166ft 193kts

Navigation Log

Ident Type
Flight plan parsing failed, navigation log unavailable